Caribe Navigator — V2PW6 — position and weather

sailwx.info

Track history (hours):
 
Tides and Currents Weather Stations Pressure Air Temp Water Temp Dewpoint Dewpoint Depression Visibility Wind Speed Wind Dir Waves Ship Positions

Caribe Navigator

Last reported at 2015-Jun-18 22:05 UTC. Time now 2015-Jul-06 00:58 UTC.
Position N 32°02' W 079°40'.
Warning: this ship's position is 17 days out of date.

Length 100 m; draft 5.3 m.

Type: Cargo ship. MMSI: 305289000.

Date/timePositionNaut miles runAvg speedWind from/ knotsBaromVisibWave heightAir tempDewpointWater temp
2015-Jun-18 22:05N 32°02' W 079°40'814.4
2015-Jun-18 21:32N 31°54' W 079°41'1414.2
2015-Jun-18 20:34N 31°40' W 079°41'1414.3
2015-Jun-18 19:33N 31°26' W 079°39'26716.7
2015-Jun-18 03:33N 26°59' W 079°44'1716.9
2015-Jun-18 02:31N 26°42' W 079°50'1617.0
2015-Jun-18 01:33N 26°27' W 079°56'1716.9
2015-Jun-18 00:33N 26°11' W 080°02'7 6.8
2015-Jun-17 23:30N 26°05' W 080°07'0 0.0
2015-Jun-17 22:29N 26°05' W 080°07'0 0.0
2015-Jun-17 21:29N 26°05' W 080°07'0 0.0
2015-Jun-17 20:29N 26°05' W 080°07'0 0.0
2015-Jun-17 19:29N 26°05' W 080°07'0 0.0
2015-Jun-17 18:32N 26°05' W 080°07'0 0.0
2015-Jun-17 17:32N 26°05' W 080°07'0 0.0
2015-Jun-17 16:32N 26°05' W 080°07'0 0.0
2015-Jun-17 15:32N 26°05' W 080°07'0 0.0
2015-Jun-17 14:32N 26°05' W 080°07'0 0.0
2015-Jun-17 13:33N 26°05' W 080°07'1110.9
2015-Jun-17 12:33N 25°57' W 079°60'  
2015-Jun-12 04:10N 25°33' W 080°02'610.0
2015-Jun-12 03:33N 25°39' W 080°02'1110.6
2015-Jun-12 02:33N 25°50' W 080°03'1212.5
2015-Jun-12 01:33N 26°02' W 080°04'4 3.9
2015-Jun-12 00:32N 26°05' W 080°07'0 0.0
2015-Jun-11 23:32N 26°05' W 080°07'0 0.0
2015-Jun-11 22:32N 26°05' W 080°07'0 0.0
2015-Jun-11 21:32N 26°05' W 080°07'0 0.0
2015-Jun-11 20:32N 26°05' W 080°07'0 0.0
2015-Jun-11 19:32N 26°05' W 080°07'0 0.0
2015-Jun-11 18:32N 26°05' W 080°07'0 0.0
2015-Jun-11 17:32N 26°05' W 080°07'0 0.0
2015-Jun-11 16:23N 26°05' W 080°07'0 0.0
2015-Jun-11 15:23N 26°05' W 080°07'0 0.0
2015-Jun-11 14:26N 26°05' W 080°07'0 0.0
2015-Jun-11 13:26N 26°05' W 080°07'0 0.0
2015-Jun-11 12:26N 26°05' W 080°07'0 0.0
2015-Jun-11 11:26N 26°05' W 080°07'0 0.0
2015-Jun-11 10:26N 26°05' W 080°07'0 0.0
2015-Jun-11 09:29N 26°05' W 080°07'0 0.0
2015-Jun-11 08:29N 26°05' W 080°07'0 0.0
2015-Jun-11 07:29N 26°05' W 080°07'0 0.0
2015-Jun-11 06:29N 26°05' W 080°07'0 0.0
2015-Jun-11 05:29N 26°05' W 080°07'0 0.0
2015-Jun-11 04:32N 26°05' W 080°07'0 0.0
2015-Jun-11 03:32N 26°05' W 080°07'0 0.0
2015-Jun-11 02:32N 26°05' W 080°07'0 0.0
2015-Jun-11 01:32N 26°05' W 080°07'0 0.0
2015-Jun-11 00:32N 26°05' W 080°07'0 0.0
2015-Jun-10 23:31N 26°05' W 080°07'0 0.0
2015-Jun-10 22:31N 26°05' W 080°07'0 0.0
2015-Jun-10 21:31N 26°05' W 080°07'0 0.0
2015-Jun-10 20:31N 26°05' W 080°07'0 0.0
2015-Jun-10 19:31N 26°05' W 080°07'0 0.0
2015-Jun-10 18:31N 26°05' W 080°07'0 0.0
2015-Jun-10 17:31N 26°05' W 080°07'0 0.0
2015-Jun-10 16:31N 26°05' W 080°07'0 0.0
2015-Jun-10 15:22N 26°05' W 080°07'0 0.0
2015-Jun-10 14:33N 26°05' W 080°07'10 9.6
2015-Jun-10 13:34N 25°58' W 080°00'1615.0
2015-Jun-10 12:29N 25°44' W 079°52'  
Track history (hours):
 
Tides and Currents Weather Stations Pressure Air Temp Water Temp Dewpoint Dewpoint Depression Visibility Wind Speed Wind Dir Waves Ship Positions

Caribe Navigator

Last reported at 2015-Jun-18 22:05 UTC. Time now 2015-Jul-06 00:58 UTC.
Position N 32°02' W 079°40'.
Warning: this ship's position is 17 days out of date.

Length 100 m; draft 5.3 m.

Type: Cargo ship. MMSI: 305289000.

Date/timePositionNaut miles runAvg speedWind from/ knotsBaromVisibWave heightAir tempDewpointWater temp
2015-Jun-18 22:05N 32°02' W 079°40'814.4
2015-Jun-18 21:32N 31°54' W 079°41'1414.2
2015-Jun-18 20:34N 31°40' W 079°41'1414.3
2015-Jun-18 19:33N 31°26' W 079°39'26716.7
2015-Jun-18 03:33N 26°59' W 079°44'1716.9
2015-Jun-18 02:31N 26°42' W 079°50'1617.0
2015-Jun-18 01:33N 26°27' W 079°56'1716.9
2015-Jun-18 00:33N 26°11' W 080°02'7 6.8
2015-Jun-17 23:30N 26°05' W 080°07'0 0.0
2015-Jun-17 22:29N 26°05' W 080°07'0 0.0
2015-Jun-17 21:29N 26°05' W 080°07'0 0.0
2015-Jun-17 20:29N 26°05' W 080°07'0 0.0
2015-Jun-17 19:29N 26°05' W 080°07'0 0.0
2015-Jun-17 18:32N 26°05' W 080°07'0 0.0
2015-Jun-17 17:32N 26°05' W 080°07'0 0.0
2015-Jun-17 16:32N 26°05' W 080°07'0 0.0
2015-Jun-17 15:32N 26°05' W 080°07'0 0.0
2015-Jun-17 14:32N 26°05' W 080°07'0 0.0
2015-Jun-17 13:33N 26°05' W 080°07'1110.9
2015-Jun-17 12:33N 25°57' W 079°60'  
2015-Jun-12 04:10N 25°33' W 080°02'610.0
2015-Jun-12 03:33N 25°39' W 080°02'1110.6
2015-Jun-12 02:33N 25°50' W 080°03'1212.5
2015-Jun-12 01:33N 26°02' W 080°04'4 3.9
2015-Jun-12 00:32N 26°05' W 080°07'0 0.0
2015-Jun-11 23:32N 26°05' W 080°07'0 0.0
2015-Jun-11 22:32N 26°05' W 080°07'0 0.0
2015-Jun-11 21:32N 26°05' W 080°07'0 0.0
2015-Jun-11 20:32N 26°05' W 080°07'0 0.0
2015-Jun-11 19:32N 26°05' W 080°07'0 0.0
2015-Jun-11 18:32N 26°05' W 080°07'0 0.0
2015-Jun-11 17:32N 26°05' W 080°07'0 0.0
2015-Jun-11 16:23N 26°05' W 080°07'0 0.0
2015-Jun-11 15:23N 26°05' W 080°07'0 0.0
2015-Jun-11 14:26N 26°05' W 080°07'0 0.0
2015-Jun-11 13:26N 26°05' W 080°07'0 0.0
2015-Jun-11 12:26N 26°05' W 080°07'0 0.0
2015-Jun-11 11:26N 26°05' W 080°07'0 0.0
2015-Jun-11 10:26N 26°05' W 080°07'0 0.0
2015-Jun-11 09:29N 26°05' W 080°07'0 0.0
2015-Jun-11 08:29N 26°05' W 080°07'0 0.0
2015-Jun-11 07:29N 26°05' W 080°07'0 0.0
2015-Jun-11 06:29N 26°05' W 080°07'0 0.0
2015-Jun-11 05:29N 26°05' W 080°07'0 0.0
2015-Jun-11 04:32N 26°05' W 080°07'0 0.0
2015-Jun-11 03:32N 26°05' W 080°07'0 0.0
2015-Jun-11 02:32N 26°05' W 080°07'0 0.0
2015-Jun-11 01:32N 26°05' W 080°07'0 0.0
2015-Jun-11 00:32N 26°05' W 080°07'0 0.0
2015-Jun-10 23:31N 26°05' W 080°07'0 0.0
2015-Jun-10 22:31N 26°05' W 080°07'0 0.0
2015-Jun-10 21:31N 26°05' W 080°07'0 0.0
2015-Jun-10 20:31N 26°05' W 080°07'0 0.0
2015-Jun-10 19:31N 26°05' W 080°07'0 0.0
2015-Jun-10 18:31N 26°05' W 080°07'0 0.0
2015-Jun-10 17:31N 26°05' W 080°07'0 0.0
2015-Jun-10 16:31N 26°05' W 080°07'0 0.0
2015-Jun-10 15:22N 26°05' W 080°07'0 0.0
2015-Jun-10 14:33N 26°05' W 080°07'10 9.6
2015-Jun-10 13:34N 25°58' W 080°00'1615.0
2015-Jun-10 12:29N 25°44' W 079°52'  

Dump ship's entire track history